createdAt,value
2023-05-03T00:00:01.354Z,1025.92
2023-05-03T00:01:00.761Z,1025.92
2023-05-03T00:02:00.391Z,1025.95
2023-05-03T00:03:00.139Z,1025.93
2023-05-03T00:03:59.751Z,1025.98
2023-05-03T00:05:01.763Z,1025.94
2023-05-03T00:06:03.171Z,1025.97
2023-05-03T00:07:01.117Z,1025.97
2023-05-03T00:08:01.033Z,1026
2023-05-03T00:09:01.142Z,1025.96
2023-05-03T00:10:01.658Z,1025.97
2023-05-03T00:11:07.596Z,1026.05
2023-05-03T00:12:01.051Z,1026.04
2023-05-03T00:13:01.066Z,1026
2023-05-03T00:14:00.643Z,1026.05
2023-05-03T00:15:00.257Z,1026.01
2023-05-03T00:16:08.997Z,1026.04
2023-05-03T00:17:01.159Z,1026.05
2023-05-03T00:18:01.105Z,1026.03
2023-05-03T00:19:01.097Z,1026.03
2023-05-03T00:20:01.605Z,1026.02
2023-05-03T00:21:12.872Z,1026.04
2023-05-03T00:22:02.011Z,1026.02
2023-05-03T00:23:01.129Z,1026.02
2023-05-03T00:24:01.133Z,1026.01
2023-05-03T00:25:01.037Z,1025.99
2023-05-03T00:26:15.436Z,1026
2023-05-03T00:27:01.648Z,1025.98
2023-05-03T00:28:02.010Z,1025.97
2023-05-03T00:29:01.472Z,1025.98
2023-05-03T00:30:01.305Z,1025.96
2023-05-03T00:31:01.093Z,1025.93
2023-05-03T00:32:01.073Z,1025.97
2023-05-03T00:33:01.133Z,1025.92
2023-05-03T00:34:01.079Z,1025.96
2023-05-03T00:35:01.035Z,1025.94
2023-05-03T00:36:01.130Z,1025.94
2023-05-03T00:37:01.483Z,1025.89
2023-05-03T00:38:02.141Z,1025.93
2023-05-03T00:39:02.187Z,1025.89
2023-05-03T00:40:01.498Z,1025.9
2023-05-03T00:41:01.315Z,1025.92
2023-05-03T00:42:01.044Z,1025.94
2023-05-03T00:43:01.057Z,1025.91
2023-05-03T00:44:01.026Z,1025.9
2023-05-03T00:45:01.153Z,1025.92
2023-05-03T00:46:12.297Z,1025.95
2023-05-03T00:47:01.068Z,1025.92
2023-05-03T00:48:01.121Z,1025.94
2023-05-03T00:49:01.085Z,1025.94
2023-05-03T00:50:01.912Z,1025.92
2023-05-03T00:51:01.031Z,1025.94
2023-05-03T00:52:01.402Z,1025.93
2023-05-03T00:53:01.209Z,1025.91
2023-05-03T00:54:01.166Z,1025.91
2023-05-03T00:55:01.320Z,1025.89
2023-05-03T00:56:02.442Z,1025.9
2023-05-03T00:57:01.430Z,1025.9
2023-05-03T00:58:01.959Z,1025.88
2023-05-03T00:59:01.039Z,1025.88
2023-05-03T01:00:01.585Z,1025.88
2023-05-03T01:01:01.048Z,1025.84
2023-05-03T01:02:01.110Z,1025.9
2023-05-03T01:03:01.151Z,1025.87
2023-05-03T01:04:02.054Z,1025.88
2023-05-03T01:05:01.089Z,1025.85
2023-05-03T01:06:01.196Z,1025.84
2023-05-03T01:07:01.485Z,1025.82
2023-05-03T01:08:02.163Z,1025.86
2023-05-03T01:09:01.111Z,1025.94
2023-05-03T01:10:01.323Z,1025.9
2023-05-03T01:11:01.117Z,1025.97
2023-05-03T01:12:01.046Z,1025.95
2023-05-03T01:13:01.039Z,1025.91
2023-05-03T01:14:01.050Z,1025.97
2023-05-03T01:15:01.471Z,1025.95
2023-05-03T01:16:01.237Z,1025.9
2023-05-03T01:17:01.100Z,1025.9
2023-05-03T01:18:00.901Z,1025.93
2023-05-03T01:19:01.603Z,1025.91
2023-05-03T01:20:01.590Z,1025.95
2023-05-03T01:21:02.292Z,1025.94
2023-05-03T01:22:01.688Z,1025.9
2023-05-03T01:23:02.715Z,1025.92
2023-05-03T01:24:01.315Z,1025.93
2023-05-03T01:25:02.039Z,1025.97
2023-05-03T01:26:01.243Z,1025.93
2023-05-03T01:27:01.141Z,1025.91
2023-05-03T01:28:01.350Z,1025.92
2023-05-03T01:29:01.030Z,1025.95
2023-05-03T01:30:01.412Z,1025.93
2023-05-03T01:31:01.057Z,1025.91
2023-05-03T01:32:01.524Z,1025.88
2023-05-03T01:33:01.490Z,1025.87
2023-05-03T01:34:01.098Z,1025.89
2023-05-03T01:35:01.072Z,1025.85
2023-05-03T01:36:01.087Z,1025.88
2023-05-03T01:37:01.085Z,1025.91
2023-05-03T01:38:01.079Z,1025.9
2023-05-03T01:39:01.023Z,1025.88
2023-05-03T01:40:01.739Z,1025.86
2023-05-03T01:41:01.112Z,1025.85
2023-05-03T01:42:01.358Z,1025.87
2023-05-03T01:43:01.954Z,1025.82
2023-05-03T01:44:02.715Z,1025.81
2023-05-03T01:45:01.043Z,1025.83
2023-05-03T01:46:01.077Z,1025.84
2023-05-03T01:47:03.766Z,1025.81
2023-05-03T01:48:00.753Z,1025.81
2023-05-03T01:49:01.480Z,1025.9
2023-05-03T01:50:01.905Z,1025.84
2023-05-03T01:51:01.331Z,1025.83
2023-05-03T01:52:06.859Z,1025.79
2023-05-03T01:53:01.985Z,1025.83
2023-05-03T01:54:01.078Z,1025.8
2023-05-03T01:55:01.131Z,1025.82
2023-05-03T01:56:00.780Z,1025.78
2023-05-03T01:57:09.182Z,1025.82
2023-05-03T01:58:01.247Z,1025.86
2023-05-03T01:59:02.043Z,1025.89
2023-05-03T02:00:01.798Z,1025.93
2023-05-03T02:01:01.395Z,1025.92
2023-05-03T02:02:11.917Z,1025.87
2023-05-03T02:03:01.147Z,1025.86
2023-05-03T02:04:01.676Z,1025.88
2023-05-03T02:05:01.365Z,1025.83
2023-05-03T02:06:01.137Z,1025.88
2023-05-03T02:07:14.552Z,1025.88
2023-05-03T02:08:01.071Z,1025.89
2023-05-03T02:09:01.066Z,1025.88
2023-05-03T02:10:01.467Z,1025.94
2023-05-03T02:11:01.269Z,1025.86
2023-05-03T02:12:16.797Z,1025.86
2023-05-03T02:13:01.051Z,1025.9
2023-05-03T02:14:01.140Z,1025.87
2023-05-03T02:15:01.124Z,1025.85
2023-05-03T02:16:01.475Z,1025.84
2023-05-03T02:17:02.100Z,1025.82
2023-05-03T02:18:01.772Z,1025.86
2023-05-03T02:19:01.349Z,1025.84
2023-05-03T02:20:02.274Z,1025.86
2023-05-03T02:21:02.234Z,1025.87
2023-05-03T02:22:01.857Z,1025.84
2023-05-03T02:23:01.077Z,1025.86
2023-05-03T02:24:01.037Z,1025.87
2023-05-03T02:25:01.092Z,1025.86
2023-05-03T02:26:01.729Z,1025.86
2023-05-03T02:27:02.373Z,1025.79
2023-05-03T02:28:01.510Z,1025.83
2023-05-03T02:29:02.028Z,1025.84
2023-05-03T02:30:01.884Z,1025.87
2023-05-03T02:31:01.449Z,1025.88
2023-05-03T02:32:01.506Z,1025.87
2023-05-03T02:33:01.077Z,1025.9
2023-05-03T02:34:01.036Z,1025.86
2023-05-03T02:35:01.396Z,1025.88
2023-05-03T02:36:01.049Z,1025.9
2023-05-03T02:37:01.068Z,1025.9
2023-05-03T02:38:01.740Z,1025.91
2023-05-03T02:39:01.063Z,1025.89
2023-05-03T02:40:04.109Z,1025.89
2023-05-03T02:41:01.079Z,1025.89
2023-05-03T02:42:01.086Z,1025.83
2023-05-03T02:43:01.086Z,1025.91
2023-05-03T02:44:01.099Z,1025.9
2023-05-03T02:45:01.132Z,1025.92
2023-05-03T02:46:01.509Z,1025.9
2023-05-03T02:47:01.224Z,1025.93
2023-05-03T02:48:01.030Z,1025.9
2023-05-03T02:49:01.033Z,1025.91
2023-05-03T02:50:01.340Z,1025.92
2023-05-03T02:51:01.065Z,1025.96
2023-05-03T02:52:01.049Z,1025.95
2023-05-03T02:53:01.376Z,1026.02
2023-05-03T02:54:02.066Z,1025.97
2023-05-03T02:55:02.043Z,1026.02
2023-05-03T02:56:01.089Z,1026
2023-05-03T02:57:04.190Z,1025.98
2023-05-03T02:58:01.479Z,1026
2023-05-03T02:59:01.100Z,1026
2023-05-03T03:00:01.513Z,1026
2023-05-03T03:01:01.106Z,1026.02
2023-05-03T03:02:01.342Z,1026.01
2023-05-03T03:03:01.224Z,1026
2023-05-03T03:04:01.647Z,1025.99
2023-05-03T03:05:01.929Z,1025.98
2023-05-03T03:06:01.198Z,1025.95
2023-05-03T03:07:01.038Z,1025.98
2023-05-03T03:08:01.036Z,1025.97
2023-05-03T03:09:01.052Z,1025.98
2023-05-03T03:10:01.354Z,1026.05
2023-05-03T03:11:01.074Z,1026.07
2023-05-03T03:12:01.087Z,1026.07
2023-05-03T03:13:01.017Z,1026.05
2023-05-03T03:14:01.086Z,1026.06
2023-05-03T03:15:01.526Z,1026.08
2023-05-03T03:16:01.502Z,1026.07
2023-05-03T03:17:01.111Z,1026.06
2023-05-03T03:18:01.222Z,1026.1
2023-05-03T03:19:01.075Z,1026.09
2023-05-03T03:20:01.516Z,1026.1
2023-05-03T03:21:01.029Z,1026.1
2023-05-03T03:22:01.108Z,1026.16
2023-05-03T03:23:01.146Z,1026.14
2023-05-03T03:24:01.140Z,1026.13
2023-05-03T03:25:01.051Z,1026.13
2023-05-03T03:26:01.811Z,1026.12
2023-05-03T03:27:01.060Z,1026.09
2023-05-03T03:28:01.071Z,1026.16
2023-05-03T03:29:01.105Z,1026.13
2023-05-03T03:30:01.555Z,1026.17
2023-05-03T03:31:01.105Z,1026.16
2023-05-03T03:32:01.333Z,1026.21
2023-05-03T03:33:01.141Z,1026.25
2023-05-03T03:34:01.114Z,1026.24
2023-05-03T03:35:01.206Z,1026.29
2023-05-03T03:36:01.149Z,1026.25
2023-05-03T03:37:01.016Z,1026.31
2023-05-03T03:38:01.220Z,1026.29
2023-05-03T03:39:01.034Z,1026.33
2023-05-03T03:40:02.045Z,1026.31
2023-05-03T03:41:01.673Z,1026.33
2023-05-03T03:42:01.369Z,1026.33
2023-05-03T03:43:03.861Z,1026.33
2023-05-03T03:44:01.078Z,1026.3
2023-05-03T03:45:01.022Z,1026.31
2023-05-03T03:46:01.086Z,1026.33
2023-05-03T03:47:01.126Z,1026.33
2023-05-03T03:48:05.914Z,1026.34
2023-05-03T03:49:01.844Z,1026.42
2023-05-03T03:50:02.058Z,1026.38
2023-05-03T03:51:01.695Z,1026.4
2023-05-03T03:52:01.134Z,1026.45
2023-05-03T03:53:08.946Z,1026.43
2023-05-03T03:54:01.041Z,1026.46
2023-05-03T03:55:01.135Z,1026.48
2023-05-03T03:56:01.240Z,1026.42
2023-05-03T03:57:00.848Z,1026.47
2023-05-03T03:58:11.780Z,1026.47
2023-05-03T03:59:02.088Z,1026.44
2023-05-03T04:00:04.450Z,1026.5
2023-05-03T04:01:00.800Z,1026.53
2023-05-03T04:02:00.525Z,1026.5
2023-05-03T04:03:13.230Z,1026.54
2023-05-03T04:04:01.904Z,1026.53
2023-05-03T04:05:01.920Z,1026.51
2023-05-03T04:06:01.163Z,1026.52
2023-05-03T04:07:01.085Z,1026.53
2023-05-03T04:08:16.350Z,1026.51
2023-05-03T04:09:01.414Z,1026.52
2023-05-03T04:10:01.452Z,1026.52
2023-05-03T04:11:01.048Z,1026.49
2023-05-03T04:12:01.490Z,1026.53
2023-05-03T04:13:01.019Z,1026.52
2023-05-03T04:14:01.172Z,1026.54
2023-05-03T04:15:01.042Z,1026.53
2023-05-03T04:16:01.794Z,1026.58
2023-05-03T04:17:01.158Z,1026.59
2023-05-03T04:18:01.118Z,1026.58
2023-05-03T04:19:01.511Z,1026.61
2023-05-03T04:20:01.494Z,1026.65
2023-05-03T04:21:01.369Z,1026.66
2023-05-03T04:22:01.130Z,1026.6
2023-05-03T04:23:00.803Z,1026.6
2023-05-03T04:24:00.372Z,1026.62
2023-05-03T04:25:00.599Z,1026.66
2023-05-03T04:26:01.788Z,1026.65
2023-05-03T04:27:01.065Z,1026.64
2023-05-03T04:28:01.061Z,1026.68
2023-05-03T04:29:01.230Z,1026.7
2023-05-03T04:30:01.533Z,1026.67
2023-05-03T04:31:04.273Z,1026.73
2023-05-03T04:32:01.197Z,1026.74
2023-05-03T04:33:01.182Z,1026.77
2023-05-03T04:34:00.814Z,1026.76
2023-05-03T04:35:00.359Z,1026.76
2023-05-03T04:35:59.874Z,1026.76
2023-05-03T04:36:59.565Z,1026.78
2023-05-03T04:38:01.116Z,1026.83
2023-05-03T04:39:01.786Z,1026.8
2023-05-03T04:40:01.890Z,1026.83
2023-05-03T04:41:02.293Z,1026.8
2023-05-03T04:42:01.352Z,1026.82
2023-05-03T04:43:01.371Z,1026.79
2023-05-03T04:44:02.088Z,1026.76
2023-05-03T04:45:01.064Z,1026.8
2023-05-03T04:46:01.101Z,1026.83
2023-05-03T04:47:01.063Z,1026.81
2023-05-03T04:48:01.153Z,1026.82
2023-05-03T04:49:01.153Z,1026.83
2023-05-03T04:50:01.408Z,1026.87
2023-05-03T04:51:01.016Z,1026.93
2023-05-03T04:52:01.176Z,1026.96
2023-05-03T04:53:01.214Z,1026.89
2023-05-03T04:54:01.248Z,1026.93
2023-05-03T04:55:01.549Z,1026.96
2023-05-03T04:56:01.257Z,1026.93
2023-05-03T04:57:01.035Z,1026.99
2023-05-03T04:58:01.399Z,1026.96
2023-05-03T04:59:01.041Z,1026.98
2023-05-03T05:00:01.236Z,1027.01
2023-05-03T05:01:01.255Z,1026.99
2023-05-03T05:02:01.190Z,1027.03
2023-05-03T05:03:00.920Z,1027
2023-05-03T05:04:01.179Z,1027.03
2023-05-03T05:05:00.634Z,1027.04
2023-05-03T05:06:00.244Z,1027.05
2023-05-03T05:06:59.842Z,1027.06
2023-05-03T05:08:01.615Z,1027.03
2023-05-03T05:09:01.497Z,1027.01
2023-05-03T05:10:02.567Z,1027.03
2023-05-03T05:11:01.290Z,1027.05
2023-05-03T05:12:01.122Z,1027.03
2023-05-03T05:13:01.052Z,1027.05
2023-05-03T05:14:01.195Z,1027.08
2023-05-03T05:15:01.867Z,1027.12
2023-05-03T05:16:01.040Z,1027.11
2023-05-03T05:17:01.046Z,1027.11
2023-05-03T05:18:02.104Z,1027.14
2023-05-03T05:19:03.793Z,1027.16
2023-05-03T05:20:02.064Z,1027.12
2023-05-03T05:21:01.753Z,1027.18
2023-05-03T05:22:01.095Z,1027.19
2023-05-03T05:23:00.798Z,1027.16
2023-05-03T05:24:05.863Z,1027.23
2023-05-03T05:25:01.381Z,1027.26
2023-05-03T05:26:02.127Z,1027.28
2023-05-03T05:27:01.519Z,1027.28
2023-05-03T05:28:01.822Z,1027.25
2023-05-03T05:29:08.008Z,1027.24
2023-05-03T05:30:01.041Z,1027.26
2023-05-03T05:31:01.800Z,1027.28
2023-05-03T05:32:02.004Z,1027.21
2023-05-03T05:33:01.877Z,1027.22
2023-05-03T05:34:09.980Z,1027.21
2023-05-03T05:35:01.024Z,1027.25
2023-05-03T05:36:01.470Z,1027.23
2023-05-03T05:37:01.023Z,1027.22
2023-05-03T05:38:01.078Z,1027.24
2023-05-03T05:39:13.734Z,1027.23
2023-05-03T05:40:01.648Z,1027.25
2023-05-03T05:41:05.359Z,1027.26
2023-05-03T05:42:01.119Z,1027.3
2023-05-03T05:43:00.817Z,1027.31
2023-05-03T05:44:17.654Z,1027.3
2023-05-03T05:45:01.424Z,1027.3
2023-05-03T05:46:02.440Z,1027.29
2023-05-03T05:47:02.188Z,1027.34
2023-05-03T05:48:01.980Z,1027.31
2023-05-03T05:49:01.147Z,1027.34
2023-05-03T05:50:01.221Z,1027.37
2023-05-03T05:51:01.163Z,1027.38
2023-05-03T05:52:01.080Z,1027.39
2023-05-03T05:53:01.113Z,1027.4
2023-05-03T05:54:01.115Z,1027.39
2023-05-03T05:55:01.182Z,1027.36
2023-05-03T05:56:01.232Z,1027.36
2023-05-03T05:57:01.150Z,1027.4
2023-05-03T05:58:01.138Z,1027.39
2023-05-03T05:59:01.136Z,1027.34
2023-05-03T06:00:01.700Z,1027.39
2023-05-03T06:01:02.149Z,1027.42
2023-05-03T06:02:01.457Z,1027.39
2023-05-03T06:03:01.187Z,1027.39
2023-05-03T06:04:02.038Z,1027.38
2023-05-03T06:05:01.002Z,1027.42
2023-05-03T06:06:00.647Z,1027.4
2023-05-03T06:07:00.381Z,1027.4
2023-05-03T06:08:00.048Z,1027.39
2023-05-03T06:09:01.275Z,1027.42
2023-05-03T06:10:02.022Z,1027.43
2023-05-03T06:11:01.206Z,1027.42
2023-05-03T06:12:02.200Z,1027.41
2023-05-03T06:13:02.021Z,1027.4
2023-05-03T06:14:01.123Z,1027.41
2023-05-03T06:15:02.446Z,1027.39
2023-05-03T06:16:01.255Z,1027.42
2023-05-03T06:17:01.035Z,1027.44
2023-05-03T06:18:01.054Z,1027.43
2023-05-03T06:19:01.080Z,1027.42
2023-05-03T06:20:01.347Z,1027.41
2023-05-03T06:21:00.840Z,1027.49
2023-05-03T06:22:00.544Z,1027.43
2023-05-03T06:23:00.250Z,1027.47
2023-05-03T06:23:59.950Z,1027.45
2023-05-03T06:24:59.632Z,1027.44
2023-05-03T06:26:01.274Z,1027.5
2023-05-03T06:27:02.523Z,1027.51
2023-05-03T06:28:01.540Z,1027.52
2023-05-03T06:29:01.308Z,1027.54
2023-05-03T06:30:01.530Z,1027.54
2023-05-03T06:31:01.606Z,1027.53
2023-05-03T06:32:01.242Z,1027.55
2023-05-03T06:33:01.185Z,1027.54
2023-05-03T06:34:01.044Z,1027.52
2023-05-03T06:35:01.228Z,1027.57
2023-05-03T06:36:01.075Z,1027.56
2023-05-03T06:37:01.755Z,1027.59
2023-05-03T06:38:01.473Z,1027.62
2023-05-03T06:39:01.088Z,1027.57
2023-05-03T06:40:02.381Z,1027.59
2023-05-03T06:41:01.093Z,1027.6
2023-05-03T06:42:01.120Z,1027.61
2023-05-03T06:43:01.234Z,1027.59
2023-05-03T06:44:01.324Z,1027.53
2023-05-03T06:45:01.100Z,1027.61
2023-05-03T06:46:01.151Z,1027.63
2023-05-03T06:47:01.264Z,1027.62
2023-05-03T06:48:01.185Z,1027.65
2023-05-03T06:49:01.315Z,1027.58
2023-05-03T06:50:00.985Z,1027.63
2023-05-03T06:51:01.041Z,1027.62
2023-05-03T06:52:01.035Z,1027.63
2023-05-03T06:53:01.048Z,1027.59
2023-05-03T06:54:01.075Z,1027.62
2023-05-03T06:55:01.466Z,1027.66
2023-05-03T06:56:01.182Z,1027.62
2023-05-03T06:57:01.209Z,1027.61
2023-05-03T06:58:02.328Z,1027.66
2023-05-03T06:59:01.361Z,1027.7
2023-05-03T07:00:01.295Z,1027.7
2023-05-03T07:01:02.532Z,1027.71
2023-05-03T07:02:02.745Z,1027.68
2023-05-03T07:03:01.480Z,1027.69
2023-05-03T07:04:01.505Z,1027.72
2023-05-03T07:05:01.881Z,1027.65
2023-05-03T07:06:01.148Z,1027.65
2023-05-03T07:07:01.106Z,1027.66
2023-05-03T07:08:01.056Z,1027.62
2023-05-03T07:09:01.065Z,1027.59
2023-05-03T07:10:01.313Z,1027.63
2023-05-03T07:11:01.779Z,1027.59
2023-05-03T07:12:01.754Z,1027.6
2023-05-03T07:13:01.397Z,1027.53
2023-05-03T07:14:04.142Z,1027.61
2023-05-03T07:15:01.620Z,1027.62
2023-05-03T07:16:03.375Z,1027.65
2023-05-03T07:17:02.858Z,1027.6
2023-05-03T07:18:01.257Z,1027.66
2023-05-03T07:19:02.028Z,1027.63
2023-05-03T07:20:04.657Z,1027.6
2023-05-03T07:21:01.171Z,1027.64
2023-05-03T07:22:01.037Z,1027.67
2023-05-03T07:23:01.246Z,1027.68
2023-05-03T07:24:01.162Z,1027.66
2023-05-03T07:25:06.687Z,1027.67
2023-05-03T07:26:01.051Z,1027.68
2023-05-03T07:27:01.361Z,1027.71
2023-05-03T07:28:01.082Z,1027.65
2023-05-03T07:29:01.115Z,1027.68
2023-05-03T07:30:09.814Z,1027.66
2023-05-03T07:31:01.325Z,1027.7
2023-05-03T07:32:01.520Z,1027.71
2023-05-03T07:33:01.288Z,1027.61
2023-05-03T07:34:01.152Z,1027.66
2023-05-03T07:35:12.807Z,1027.63
2023-05-03T07:36:01.122Z,1027.58
2023-05-03T07:37:01.116Z,1027.6
2023-05-03T07:38:01.113Z,1027.6
2023-05-03T07:39:01.307Z,1027.64
2023-05-03T07:40:15.548Z,1027.59
2023-05-03T07:41:04.048Z,1027.64
2023-05-03T07:42:01.718Z,1027.64
2023-05-03T07:43:02.006Z,1027.61
2023-05-03T07:44:02.229Z,1027.59
2023-05-03T07:45:01.468Z,1027.58
2023-05-03T07:46:01.103Z,1027.58
2023-05-03T07:47:01.084Z,1027.56
2023-05-03T07:48:01.196Z,1027.54
2023-05-03T07:49:01.093Z,1027.52
2023-05-03T07:50:01.368Z,1027.57
2023-05-03T07:51:01.126Z,1027.54
2023-05-03T07:52:01.133Z,1027.55
2023-05-03T07:53:01.131Z,1027.54
2023-05-03T07:54:01.030Z,1027.57
2023-05-03T07:55:01.033Z,1027.56
2023-05-03T07:56:01.289Z,1027.57
2023-05-03T07:57:01.106Z,1027.57
2023-05-03T07:58:01.101Z,1027.55
2023-05-03T07:59:09.124Z,1027.53
2023-05-03T08:00:01.233Z,1027.53
2023-05-03T08:01:01.759Z,1027.61
2023-05-03T08:02:01.974Z,1027.6
2023-05-03T08:03:01.869Z,1027.59
2023-05-03T08:04:01.183Z,1027.57
2023-05-03T08:05:01.768Z,1027.58
2023-05-03T08:06:00.883Z,1027.6
2023-05-03T08:07:01.131Z,1027.55
2023-05-03T08:08:01.113Z,1027.58
2023-05-03T08:09:01.120Z,1027.56
2023-05-03T08:10:01.172Z,1027.53
2023-05-03T08:11:01.431Z,1027.52
2023-05-03T08:12:01.054Z,1027.52
2023-05-03T08:13:01.694Z,1027.5
2023-05-03T08:14:01.294Z,1027.5
2023-05-03T08:15:02.864Z,1027.44
2023-05-03T08:16:02.512Z,1027.49
2023-05-03T08:17:01.113Z,1027.47
2023-05-03T08:18:01.107Z,1027.55
2023-05-03T08:19:01.087Z,1027.52
2023-05-03T08:20:01.704Z,1027.55
2023-05-03T08:21:01.098Z,1027.61
2023-05-03T08:22:01.117Z,1027.53
2023-05-03T08:23:01.313Z,1027.52
2023-05-03T08:24:00.835Z,1027.47
2023-05-03T08:25:01.118Z,1027.5
2023-05-03T08:26:00.720Z,1027.52
2023-05-03T08:27:00.436Z,1027.52
2023-05-03T08:28:00.135Z,1027.5
2023-05-03T08:28:59.835Z,1027.46
2023-05-03T08:30:02.563Z,1027.52
2023-05-03T08:31:01.511Z,1027.51
2023-05-03T08:32:02.090Z,1027.46
2023-05-03T08:33:00.723Z,1027.5
2023-05-03T08:34:00.684Z,1027.48
2023-05-03T08:35:00.268Z,1027.53
2023-05-03T08:35:59.988Z,1027.53
2023-05-03T08:36:59.713Z,1027.55
2023-05-03T08:38:01.290Z,1027.54
2023-05-03T08:39:02.548Z,1027.59
2023-05-03T08:40:01.324Z,1027.54
2023-05-03T08:41:01.138Z,1027.52
2023-05-03T08:42:03.892Z,1027.55
2023-05-03T08:43:01.445Z,1027.54
2023-05-03T08:44:00.565Z,1027.57
2023-05-03T08:45:00.294Z,1027.51
2023-05-03T08:45:59.947Z,1027.54
2023-05-03T08:46:59.595Z,1027.5
2023-05-03T08:48:01.748Z,1027.54
2023-05-03T08:49:01.748Z,1027.61
2023-05-03T08:50:01.276Z,1027.58
2023-05-03T08:51:01.087Z,1027.54
2023-05-03T08:52:01.471Z,1027.54
2023-05-03T08:53:01.102Z,1027.57
2023-05-03T08:54:01.144Z,1027.57
2023-05-03T08:55:01.113Z,1027.54
2023-05-03T08:56:01.135Z,1027.58
2023-05-03T08:57:01.477Z,1027.54
2023-05-03T08:58:02.385Z,1027.57
2023-05-03T08:59:01.098Z,1027.52
2023-05-03T09:00:01.231Z,1027.52
2023-05-03T09:01:01.161Z,1027.53
2023-05-03T09:02:01.168Z,1027.52
2023-05-03T09:03:01.559Z,1027.51
2023-05-03T09:04:00.933Z,1027.49
2023-05-03T09:05:01.186Z,1027.53
2023-05-03T09:06:03.695Z,1027.54
2023-05-03T09:07:01.770Z,1027.56
2023-05-03T09:08:01.398Z,1027.57
2023-05-03T09:09:01.089Z,1027.53
2023-05-03T09:10:01.112Z,1027.53
2023-05-03T09:11:05.734Z,1027.53
2023-05-03T09:12:02.602Z,1027.56
2023-05-03T09:13:01.521Z,1027.58
2023-05-03T09:14:01.077Z,1027.59
2023-05-03T09:15:01.183Z,1027.6
2023-05-03T09:16:09.291Z,1027.63
2023-05-03T09:17:01.109Z,1027.6
2023-05-03T09:18:02.001Z,1027.57
2023-05-03T09:19:01.969Z,1027.61
2023-05-03T09:20:01.445Z,1027.6
2023-05-03T09:21:11.514Z,1027.58
2023-05-03T09:22:02.155Z,1027.61
2023-05-03T09:23:01.095Z,1027.62
2023-05-03T09:24:01.118Z,1027.6
2023-05-03T09:25:01.929Z,1027.59
2023-05-03T09:26:14.244Z,1027.59
2023-05-03T09:27:01.545Z,1027.64
2023-05-03T09:28:01.170Z,1027.63
2023-05-03T09:29:01.184Z,1027.62
2023-05-03T09:30:01.793Z,1027.61
2023-05-03T09:31:01.158Z,1027.62
2023-05-03T09:32:01.172Z,1027.66
2023-05-03T09:33:01.101Z,1027.62
2023-05-03T09:34:01.873Z,1027.57
2023-05-03T09:35:01.315Z,1027.58
2023-05-03T09:36:01.143Z,1027.58
2023-05-03T09:37:01.105Z,1027.56
2023-05-03T09:38:01.474Z,1027.58
2023-05-03T09:39:01.456Z,1027.58
2023-05-03T09:40:01.373Z,1027.58
2023-05-03T09:41:02.394Z,1027.6
2023-05-03T09:42:01.035Z,1027.59
2023-05-03T09:43:02.633Z,1027.55
2023-05-03T09:44:01.124Z,1027.59
2023-05-03T09:45:00.883Z,1027.59
2023-05-03T09:46:01.191Z,1027.64
2023-05-03T09:47:01.444Z,1027.59
2023-05-03T09:48:01.103Z,1027.59
2023-05-03T09:49:01.045Z,1027.56
2023-05-03T09:50:01.109Z,1027.56
2023-05-03T09:51:01.057Z,1027.6
2023-05-03T09:52:01.062Z,1027.59
2023-05-03T09:53:01.713Z,1027.57
2023-05-03T09:54:01.904Z,1027.52
2023-05-03T09:55:01.435Z,1027.55
2023-05-03T09:56:01.204Z,1027.55
2023-05-03T09:57:01.697Z,1027.61
2023-05-03T09:58:01.433Z,1027.59
2023-05-03T09:59:02.938Z,1027.55
2023-05-03T10:00:01.192Z,1027.51
2023-05-03T10:01:01.665Z,1027.52
2023-05-03T10:02:01.444Z,1027.54
2023-05-03T10:03:01.401Z,1027.56
2023-05-03T10:04:01.372Z,1027.58
2023-05-03T10:05:01.675Z,1027.57
2023-05-03T10:06:01.584Z,1027.57
2023-05-03T10:07:01.241Z,1027.56
2023-05-03T10:08:01.390Z,1027.52
2023-05-03T10:09:02.402Z,1027.53
2023-05-03T10:10:01.086Z,1027.48
2023-05-03T10:11:01.011Z,1027.44
2023-05-03T10:12:01.317Z,1027.42
2023-05-03T10:13:01.496Z,1027.4
2023-05-03T10:14:01.487Z,1027.38
2023-05-03T10:15:01.307Z,1027.4
2023-05-03T10:16:01.288Z,1027.35
2023-05-03T10:17:01.176Z,1027.36
2023-05-03T10:18:04.671Z,1027.31
2023-05-03T10:19:02.068Z,1027.35
2023-05-03T10:20:01.732Z,1027.32
2023-05-03T10:21:01.054Z,1027.28
2023-05-03T10:22:01.065Z,1027.25
2023-05-03T10:23:01.084Z,1027.25
2023-05-03T10:24:01.592Z,1027.21
2023-05-03T10:25:02.037Z,1027.22
2023-05-03T10:26:02.355Z,1027.24
2023-05-03T10:27:02.035Z,1027.23
2023-05-03T10:28:01.639Z,1027.24
2023-05-03T10:29:01.505Z,1027.22
2023-05-03T10:30:01.815Z,1027.26
2023-05-03T10:31:02.415Z,1027.23
2023-05-03T10:32:01.921Z,1027.26
2023-05-03T10:33:02.600Z,1027.25
2023-05-03T10:34:00.921Z,1027.22
2023-05-03T10:35:00.615Z,1027.23
2023-05-03T10:36:01.056Z,1027.24
2023-05-03T10:37:01.082Z,1027.24
2023-05-03T10:38:01.049Z,1027.26
2023-05-03T10:39:01.052Z,1027.24
2023-05-03T10:40:01.052Z,1027.26
2023-05-03T10:41:01.392Z,1027.26
2023-05-03T10:42:02.090Z,1027.24
2023-05-03T10:43:02.896Z,1027.23
2023-05-03T10:44:01.080Z,1027.22
2023-05-03T10:45:01.676Z,1027.22
2023-05-03T10:46:01.133Z,1027.18
2023-05-03T10:47:01.109Z,1027.24
2023-05-03T10:48:01.203Z,1027.21
2023-05-03T10:49:01.219Z,1027.21
2023-05-03T10:50:01.418Z,1027.23
2023-05-03T10:51:01.160Z,1027.23
2023-05-03T10:52:02.783Z,1027.24
2023-05-03T10:53:01.045Z,1027.24
2023-05-03T10:54:01.054Z,1027.26
2023-05-03T10:55:01.319Z,1027.27
2023-05-03T10:56:01.072Z,1027.27
2023-05-03T10:57:05.504Z,1027.26
2023-05-03T10:58:01.720Z,1027.26
2023-05-03T10:59:02.104Z,1027.3
2023-05-03T11:00:02.232Z,1027.27
2023-05-03T11:01:02.228Z,1027.21
2023-05-03T11:02:08.641Z,1027.25
2023-05-03T11:03:01.707Z,1027.2
2023-05-03T11:04:01.766Z,1027.18
2023-05-03T11:05:01.881Z,1027.19
2023-05-03T11:06:01.910Z,1027.22
2023-05-03T11:07:10.791Z,1027.15
2023-05-03T11:08:00.707Z,1027.14
2023-05-03T11:09:00.267Z,1027.09
2023-05-03T11:09:59.916Z,1027.1
2023-05-03T11:10:59.508Z,1027.12
2023-05-03T11:12:13.750Z,1027.11
2023-05-03T11:13:01.083Z,1027.1
2023-05-03T11:14:01.717Z,1027.12
2023-05-03T11:15:02.722Z,1027.12
2023-05-03T11:16:01.927Z,1027.13
2023-05-03T11:17:16.521Z,1027.13
2023-05-03T11:18:01.302Z,1027.15
2023-05-03T11:19:02.329Z,1027.04
2023-05-03T11:20:01.196Z,1027.07
2023-05-03T11:21:01.932Z,1027.1
2023-05-03T11:22:01.243Z,1027.08
2023-05-03T11:23:01.760Z,1027.06
2023-05-03T11:24:02.011Z,1027.08
2023-05-03T11:25:01.640Z,1027.1
2023-05-03T11:26:01.160Z,1027.07
2023-05-03T11:27:01.088Z,1027.07
2023-05-03T11:28:01.021Z,1027.07
2023-05-03T11:29:01.399Z,1027.11
2023-05-03T11:30:01.049Z,1027.07
2023-05-03T11:31:04.062Z,1027.12
2023-05-03T11:32:01.126Z,1027.09
2023-05-03T11:33:01.588Z,1027.11
2023-05-03T11:34:01.283Z,1027.06
2023-05-03T11:35:02.406Z,1027.05
2023-05-03T11:36:01.933Z,1027.08
2023-05-03T11:37:01.938Z,1027.05
2023-05-03T11:38:01.158Z,1027
2023-05-03T11:39:01.153Z,1026.98
2023-05-03T11:40:01.181Z,1027.03
2023-05-03T11:41:01.097Z,1027.01
2023-05-03T11:42:01.346Z,1027.01
2023-05-03T11:43:01.107Z,1027.08
2023-05-03T11:44:15.231Z,1027.07
2023-05-03T11:45:01.280Z,1027.05
2023-05-03T11:46:01.367Z,1027.01
2023-05-03T11:47:01.626Z,1027.05
2023-05-03T11:48:01.976Z,1027.11
2023-05-03T11:49:01.315Z,1027.01
2023-05-03T11:50:01.172Z,1027.06
2023-05-03T11:51:01.179Z,1027.07
2023-05-03T11:52:01.319Z,1027.08
2023-05-03T11:53:01.267Z,1027.07
2023-05-03T11:54:06.886Z,1027.07
2023-05-03T11:55:01.681Z,1027.09
2023-05-03T11:56:01.438Z,1027.09
2023-05-03T11:57:01.348Z,1027.07
2023-05-03T11:58:01.350Z,1027.08
2023-05-03T11:59:01.291Z,1027.05
2023-05-03T12:00:02.620Z,1027.07
2023-05-03T12:01:02.384Z,1027.07
2023-05-03T12:02:02.262Z,1027.05
2023-05-03T12:03:01.660Z,1027.03
2023-05-03T12:04:02.734Z,1027.04
2023-05-03T12:05:01.966Z,1027.03
2023-05-03T12:06:02.495Z,1027.02
2023-05-03T12:07:03.189Z,1027
2023-05-03T12:08:02.056Z,1027.03